TVS1106 LIML-LKPR
Flight info
| Callsign | TVS1106 |
|---|---|
| Flight time | 1h 31m |
| Altitude | 31000 |
| Route | NESTI DCT TISAX DCT GOGEM DCT LENIZ DCT MEBEK DCT NENUM Z39 DOLUP DCT APRAQ |
| Aircraft | A320/M-SDE3FGHIRWY/LB1 |
Departure
| Time | 2026-05-04 15:25 |
|---|---|
| Airport | Milano Linate Airport (LIML) |
Arrival
| Time | 2026-05-04 16:56 |
|---|---|
| Airport | Václav Havel Airport Prague (LKPR) |
| Time | Latitude | Longitude | Altitude | Speed | Heading |
|---|---|---|---|---|---|
| 2026-05-04 14:57 | 45.45559 | 9.28075 | 359 ft | 0 kts | 92° |
| 2026-05-04 15:18 | 45.45559 | 9.28076 | 359 ft | 0 kts | 92° |
| 2026-05-04 15:19 | 45.45559 | 9.28094 | 362 ft | 4 kts | 90° |
| 2026-05-04 15:19 | 45.45549 | 9.28139 | 363 ft | 6 kts | 131° |
| 2026-05-04 15:19 | 45.45436 | 9.28151 | 365 ft | 11 kts | 182° |
| 2026-05-04 15:20 | 45.45350 | 9.28137 | 366 ft | 14 kts | 200° |
| 2026-05-04 15:20 | 45.45257 | 9.28070 | 362 ft | 14 kts | 207° |
| 2026-05-04 15:20 | 45.45157 | 9.28055 | 359 ft | 15 kts | 165° |
| 2026-05-04 15:20 | 45.45053 | 9.28063 | 359 ft | 16 kts | 176° |
| 2026-05-04 15:21 | 45.44947 | 9.28018 | 360 ft | 18 kts | 241° |
| 2026-05-04 15:21 | 45.44860 | 9.27933 | 360 ft | 18 kts | 170° |
| 2026-05-04 15:21 | 45.44572 | 9.27967 | 360 ft | 23 kts | 176° |
| 2026-05-04 15:22 | 45.44399 | 9.27986 | 364 ft | 26 kts | 176° |
| 2026-05-04 15:22 | 45.44215 | 9.28013 | 360 ft | 28 kts | 172° |
| 2026-05-04 15:22 | 45.43842 | 9.28048 | 360 ft | 18 kts | 174° |
| 2026-05-04 15:23 | 45.43704 | 9.28064 | 361 ft | 21 kts | 176° |
| 2026-05-04 15:23 | 45.43551 | 9.28080 | 360 ft | 18 kts | 175° |
| 2026-05-04 15:23 | 45.43450 | 9.28027 | 360 ft | 17 kts | 245° |
| 2026-05-04 15:23 | 45.43458 | 9.27857 | 362 ft | 18 kts | 310° |
| 2026-05-04 15:24 | 45.43587 | 9.27805 | 366 ft | 0 kts | 355° |
| 2026-05-04 15:24 | 45.44155 | 9.27735 | 365 ft | 108 kts | 355° |
| 2026-05-04 15:25 | 45.45082 | 9.27626 | 428 ft | 150 kts | 356° |
| 2026-05-04 15:25 | 45.46059 | 9.27426 | 1120 ft | 136 kts | 350° |
| 2026-05-04 15:25 | 45.47064 | 9.27445 | 1520 ft | 152 kts | 4° |
| 2026-05-04 15:26 | 45.49324 | 9.27859 | 2425 ft | 185 kts | 6° |
| 2026-05-04 15:26 | 45.50691 | 9.28104 | 2856 ft | 210 kts | 5° |
| 2026-05-04 15:26 | 45.53866 | 9.29265 | 4104 ft | 263 kts | 27° |
| 2026-05-04 15:27 | 45.55489 | 9.30529 | 5134 ft | 269 kts | 28° |
| 2026-05-04 15:27 | 45.58847 | 9.33111 | 7302 ft | 280 kts | 29° |
| 2026-05-04 15:28 | 45.62409 | 9.35809 | 9226 ft | 295 kts | 29° |
| 2026-05-04 15:28 | 45.64243 | 9.37190 | 10158 ft | 303 kts | 29° |
| 2026-05-04 15:28 | 45.67846 | 9.40969 | 11144 ft | 344 kts | 49° |
| 2026-05-04 15:29 | 45.69331 | 9.43696 | 11897 ft | 352 kts | 56° |
| 2026-05-04 15:30 | 45.75133 | 9.55538 | 15267 ft | 374 kts | 65° |
| 2026-05-04 15:30 | 45.76657 | 9.66567 | 17614 ft | 387 kts | 88° |
| 2026-05-04 15:31 | 45.77061 | 9.74358 | 19001 ft | 397 kts | 87° |
| 2026-05-04 15:31 | 45.77271 | 9.78335 | 19684 ft | 401 kts | 87° |
| 2026-05-04 15:32 | 45.77911 | 9.90493 | 21773 ft | 412 kts | 87° |
| 2026-05-04 15:32 | 45.78331 | 9.98743 | 23092 ft | 418 kts | 87° |
| 2026-05-04 15:33 | 45.78741 | 10.07111 | 24259 ft | 424 kts | 87° |
| 2026-05-04 15:34 | 45.79360 | 10.19877 | 25750 ft | 432 kts | 88° |
| 2026-05-04 15:34 | 45.79559 | 10.24187 | 26222 ft | 435 kts | 88° |
| 2026-05-04 15:34 | 45.80070 | 10.32881 | 27115 ft | 442 kts | 81° |
| 2026-05-04 15:35 | 45.82402 | 10.41084 | 27987 ft | 452 kts | 57° |
| 2026-05-04 15:35 | 45.84407 | 10.44570 | 28381 ft | 457 kts | 45° |
| 2026-05-04 15:35 | 45.86891 | 10.47439 | 28777 ft | 461 kts | 33° |
| 2026-05-04 15:36 | 45.92593 | 10.51813 | 29524 ft | 468 kts | 27° |
| 2026-05-04 15:36 | 45.95492 | 10.53974 | 29890 ft | 471 kts | 27° |
| 2026-05-04 15:36 | 45.98409 | 10.56157 | 30217 ft | 474 kts | 28° |
| 2026-05-04 15:37 | 46.01345 | 10.58361 | 30538 ft | 477 kts | 28° |
| 2026-05-04 15:37 | 46.04293 | 10.60580 | 30843 ft | 479 kts | 27° |
| 2026-05-04 15:37 | 46.07260 | 10.62818 | 31073 ft | 484 kts | 27° |
| 2026-05-04 15:37 | 46.10300 | 10.65112 | 31124 ft | 491 kts | 27° |
| 2026-05-04 15:38 | 46.16439 | 10.69743 | 31131 ft | 503 kts | 27° |
| 2026-05-04 15:38 | 46.22683 | 10.74477 | 31145 ft | 510 kts | 27° |
| 2026-05-04 15:39 | 46.28984 | 10.79329 | 31113 ft | 517 kts | 32° |
| 2026-05-04 15:39 | 46.35086 | 10.84646 | 31114 ft | 493 kts | 35° |
| 2026-05-04 15:40 | 46.37931 | 10.87144 | 31387 ft | 470 kts | 28° |
| 2026-05-04 15:40 | 46.40821 | 10.89242 | 31172 ft | 461 kts | 24° |
| 2026-05-04 15:40 | 46.43746 | 10.91119 | 31153 ft | 458 kts | 22° |
| 2026-05-04 15:41 | 46.49558 | 10.94912 | 31145 ft | 458 kts | 25° |
| 2026-05-04 15:41 | 46.55219 | 10.99122 | 31121 ft | 457 kts | 27° |
| 2026-05-04 15:42 | 46.60791 | 11.03556 | 31044 ft | 456 kts | 28° |
| 2026-05-04 15:42 | 46.66134 | 11.08491 | 31040 ft | 455 kts | 40° |
| 2026-05-04 15:43 | 46.70983 | 11.14429 | 31042 ft | 456 kts | 40° |
| 2026-05-04 15:43 | 46.75864 | 11.20415 | 31049 ft | 455 kts | 40° |
| 2026-05-04 15:44 | 46.80708 | 11.26388 | 31057 ft | 456 kts | 40° |
| 2026-05-04 15:44 | 46.85546 | 11.32365 | 31054 ft | 456 kts | 40° |
| 2026-05-04 15:45 | 46.90382 | 11.38361 | 31044 ft | 456 kts | 40° |
| 2026-05-04 15:45 | 46.95211 | 11.44373 | 31023 ft | 456 kts | 40° |
| 2026-05-04 15:46 | 47.00320 | 11.49832 | 31006 ft | 455 kts | 26° |
| 2026-05-04 15:46 | 47.06290 | 11.52730 | 30988 ft | 452 kts | 7° |
| 2026-05-04 15:47 | 47.12540 | 11.53306 | 30973 ft | 450 kts | 0° |
| 2026-05-04 15:47 | 47.18839 | 11.53718 | 30964 ft | 450 kts | 1° |
| 2026-05-04 15:48 | 47.25054 | 11.54124 | 30963 ft | 449 kts | 1° |
| 2026-05-04 15:48 | 47.34457 | 11.54750 | 30965 ft | 449 kts | 1° |
| 2026-05-04 15:49 | 47.40690 | 11.55159 | 30967 ft | 448 kts | 1° |
| 2026-05-04 15:49 | 47.45858 | 11.55491 | 30967 ft | 447 kts | 1° |
| 2026-05-04 15:50 | 47.52075 | 11.55886 | 30959 ft | 447 kts | 1° |
| 2026-05-04 15:50 | 47.58393 | 11.55721 | 30940 ft | 459 kts | 347° |
| 2026-05-04 15:51 | 47.64681 | 11.54509 | 30936 ft | 452 kts | 7° |
| 2026-05-04 15:51 | 47.67651 | 11.55911 | 30943 ft | 450 kts | 29° |
| 2026-05-04 15:51 | 47.70083 | 11.58793 | 30944 ft | 449 kts | 51° |
| 2026-05-04 15:52 | 47.71644 | 11.62759 | 30938 ft | 446 kts | 73° |
| 2026-05-04 15:52 | 47.72385 | 11.67215 | 30945 ft | 445 kts | 78° |
| 2026-05-04 15:52 | 47.73457 | 11.71536 | 30933 ft | 448 kts | 62° |
| 2026-05-04 15:52 | 47.75203 | 11.75357 | 30939 ft | 449 kts | 50° |
| 2026-05-04 15:53 | 47.79636 | 11.81888 | 30933 ft | 450 kts | 42° |
| 2026-05-04 15:53 | 47.84168 | 11.88314 | 30934 ft | 450 kts | 46° |
| 2026-05-04 15:54 | 47.88348 | 11.95247 | 30933 ft | 450 kts | 50° |
| 2026-05-04 15:54 | 47.92334 | 12.02422 | 30929 ft | 450 kts | 51° |
| 2026-05-04 15:55 | 47.96355 | 12.09594 | 30927 ft | 450 kts | 50° |
| 2026-05-04 15:55 | 48.00466 | 12.16750 | 30927 ft | 451 kts | 49° |
| 2026-05-04 15:56 | 48.04565 | 12.23840 | 30925 ft | 451 kts | 49° |
| 2026-05-04 15:56 | 48.08648 | 12.30937 | 30925 ft | 451 kts | 49° |
| 2026-05-04 15:57 | 48.12730 | 12.38106 | 30925 ft | 451 kts | 49° |
| 2026-05-04 15:57 | 48.16798 | 12.45265 | 30921 ft | 452 kts | 49° |
| 2026-05-04 15:58 | 48.20871 | 12.52438 | 30921 ft | 452 kts | 49° |
| 2026-05-04 15:58 | 48.25276 | 12.59126 | 30921 ft | 451 kts | 38° |
| 2026-05-04 15:59 | 48.30116 | 12.65104 | 30924 ft | 451 kts | 38° |
| 2026-05-04 15:59 | 48.34943 | 12.71106 | 30923 ft | 451 kts | 38° |
| 2026-05-04 16:00 | 48.39770 | 12.77122 | 30924 ft | 450 kts | 38° |
| 2026-05-04 16:00 | 48.44594 | 12.83154 | 30922 ft | 450 kts | 39° |
| 2026-05-04 16:01 | 48.49410 | 12.89191 | 30928 ft | 450 kts | 38° |
| 2026-05-04 16:01 | 48.54333 | 12.95111 | 30923 ft | 449 kts | 31° |
| 2026-05-04 16:02 | 48.59739 | 12.99794 | 30923 ft | 448 kts | 27° |
| 2026-05-04 16:03 | 48.67864 | 13.06771 | 30935 ft | 448 kts | 28° |
| 2026-05-04 16:03 | 48.73280 | 13.11453 | 30939 ft | 448 kts | 28° |
| 2026-05-04 16:04 | 48.78683 | 13.16130 | 30939 ft | 448 kts | 28° |
| 2026-05-04 16:04 | 48.86794 | 13.23161 | 30943 ft | 447 kts | 27° |
| 2026-05-04 16:05 | 48.92453 | 13.27036 | 30946 ft | 446 kts | 20° |
| 2026-05-04 16:06 | 49.01045 | 13.32502 | 30951 ft | 446 kts | 20° |
| 2026-05-04 16:07 | 49.12376 | 13.40404 | 30955 ft | 450 kts | 33° |
| 2026-05-04 16:08 | 49.21842 | 13.52958 | 30959 ft | 451 kts | 40° |
| 2026-05-04 16:09 | 49.33568 | 13.68944 | 30964 ft | 452 kts | 40° |
| 2026-05-04 16:10 | 49.42942 | 13.81855 | 29781 ft | 455 kts | 40° |
| 2026-05-04 16:11 | 49.49922 | 13.91501 | 28041 ft | 442 kts | 40° |
| 2026-05-04 16:11 | 49.52190 | 13.94650 | 27473 ft | 438 kts | 40° |
| 2026-05-04 16:12 | 49.58905 | 14.03988 | 25814 ft | 429 kts | 41° |
| 2026-05-04 16:12 | 49.65985 | 14.12069 | 24312 ft | 419 kts | 21° |
| 2026-05-04 16:13 | 49.71561 | 14.14375 | 23320 ft | 414 kts | 9° |
| 2026-05-04 16:13 | 49.77169 | 14.16143 | 22348 ft | 408 kts | 10° |
| 2026-05-04 16:14 | 49.82638 | 14.18281 | 21356 ft | 406 kts | 22° |
| 2026-05-04 16:14 | 49.86312 | 14.21994 | 20533 ft | 405 kts | 43° |
| 2026-05-04 16:15 | 49.90664 | 14.33112 | 18795 ft | 403 kts | 73° |
| 2026-05-04 16:16 | 49.90936 | 14.41673 | 17578 ft | 395 kts | 105° |
| 2026-05-04 16:16 | 49.86948 | 14.52178 | 15924 ft | 361 kts | 130° |
| 2026-05-04 16:17 | 49.84002 | 14.58146 | 14887 ft | 337 kts | 130° |
| 2026-05-04 16:18 | 49.79915 | 14.66504 | 13395 ft | 317 kts | 130° |
| 2026-05-04 16:18 | 49.78579 | 14.69215 | 12912 ft | 315 kts | 130° |
| 2026-05-04 16:19 | 49.76572 | 14.78917 | 11518 ft | 340 kts | 77° |
| 2026-05-04 16:19 | 49.79244 | 14.84838 | 10392 ft | 344 kts | 37° |
| 2026-05-04 16:20 | 49.85455 | 14.89329 | 8877 ft | 315 kts | 15° |
| 2026-05-04 16:20 | 49.88884 | 14.90946 | 8041 ft | 300 kts | 15° |
| 2026-05-04 16:21 | 49.94801 | 14.93497 | 6939 ft | 292 kts | 1° |
| 2026-05-04 16:22 | 49.98790 | 14.93326 | 6210 ft | 283 kts | 355° |
| 2026-05-04 16:22 | 50.04613 | 14.92663 | 5082 ft | 276 kts | 342° |
| 2026-05-04 16:23 | 50.08630 | 14.86657 | 4069 ft | 270 kts | 305° |
| 2026-05-04 16:24 | 50.12805 | 14.77397 | 3548 ft | 243 kts | 282° |
| 2026-05-04 16:25 | 50.11934 | 14.72673 | 3961 ft | 236 kts | 220° |
| 2026-05-04 16:26 | 50.05555 | 14.71937 | 4004 ft | 240 kts | 170° |
| 2026-05-04 16:26 | 50.00685 | 14.73853 | 3998 ft | 240 kts | 166° |
| 2026-05-04 16:27 | 49.97468 | 14.75197 | 4001 ft | 239 kts | 165° |
| 2026-05-04 16:28 | 49.92663 | 14.77206 | 4004 ft | 238 kts | 166° |
| 2026-05-04 16:28 | 49.87889 | 14.77830 | 3996 ft | 232 kts | 210° |
| 2026-05-04 16:29 | 49.87980 | 14.68901 | 4011 ft | 248 kts | 307° |
| 2026-05-04 16:30 | 49.91567 | 14.63105 | 4007 ft | 245 kts | 317° |
| 2026-05-04 16:31 | 49.93945 | 14.59477 | 4006 ft | 237 kts | 308° |
| 2026-05-04 16:31 | 49.96876 | 14.53468 | 4012 ft | 238 kts | 304° |
| 2026-05-04 16:32 | 49.99840 | 14.47113 | 4007 ft | 242 kts | 306° |
| 2026-05-04 16:33 | 50.01864 | 14.42967 | 3619 ft | 236 kts | 306° |
| 2026-05-04 16:33 | 50.03765 | 14.39078 | 3040 ft | 215 kts | 306° |
| 2026-05-04 16:34 | 50.05463 | 14.35582 | 2996 ft | 185 kts | 305° |
| 2026-05-04 16:34 | 50.06211 | 14.34029 | 2991 ft | 179 kts | 306° |
| 2026-05-04 16:35 | 50.08656 | 14.28973 | 3003 ft | 217 kts | 306° |
| 2026-05-04 16:35 | 50.11571 | 14.22950 | 3427 ft | 242 kts | 306° |
| 2026-05-04 16:36 | 50.12568 | 14.20884 | 3663 ft | 242 kts | 306° |
| 2026-05-04 16:36 | 50.14556 | 14.16725 | 3979 ft | 243 kts | 305° |
| 2026-05-04 16:37 | 50.16588 | 14.12462 | 4010 ft | 244 kts | 305° |
| 2026-05-04 16:37 | 50.17602 | 14.10338 | 4008 ft | 243 kts | 305° |
| 2026-05-04 16:37 | 50.19606 | 14.06139 | 4002 ft | 242 kts | 305° |
| 2026-05-04 16:38 | 50.21632 | 14.01926 | 4001 ft | 243 kts | 310° |
| 2026-05-04 16:39 | 50.26177 | 14.01569 | 4003 ft | 242 kts | 46° |
| 2026-05-04 16:39 | 50.27005 | 14.06328 | 4007 ft | 234 kts | 102° |
| 2026-05-04 16:40 | 50.26296 | 14.11307 | 4004 ft | 235 kts | 105° |
| 2026-05-04 16:40 | 50.25528 | 14.16334 | 4007 ft | 243 kts | 105° |
| 2026-05-04 16:41 | 50.24737 | 14.21511 | 4005 ft | 245 kts | 105° |
| 2026-05-04 16:41 | 50.23452 | 14.29254 | 3991 ft | 244 kts | 118° |
| 2026-05-04 16:42 | 50.20735 | 14.35937 | 4009 ft | 242 kts | 125° |
| 2026-05-04 16:43 | 50.18869 | 14.40317 | 4005 ft | 242 kts | 125° |
| 2026-05-04 16:43 | 50.16999 | 14.44709 | 4007 ft | 243 kts | 125° |
| 2026-05-04 16:43 | 50.16071 | 14.46906 | 4007 ft | 243 kts | 125° |
| 2026-05-04 16:44 | 50.12335 | 14.55675 | 4008 ft | 243 kts | 125° |
| 2026-05-04 16:45 | 50.10469 | 14.60062 | 4011 ft | 242 kts | 125° |
| 2026-05-04 16:46 | 50.07697 | 14.66626 | 4012 ft | 242 kts | 125° |
| 2026-05-04 16:46 | 50.05878 | 14.71006 | 4004 ft | 241 kts | 126° |
| 2026-05-04 16:47 | 50.03149 | 14.73679 | 4009 ft | 236 kts | 164° |
| 2026-05-04 16:47 | 50.00043 | 14.75023 | 4000 ft | 222 kts | 165° |
| 2026-05-04 16:48 | 49.95800 | 14.76761 | 4004 ft | 206 kts | 171° |
| 2026-05-04 16:48 | 49.94383 | 14.77031 | 4009 ft | 203 kts | 174° |
| 2026-05-04 16:49 | 49.91620 | 14.76666 | 3997 ft | 204 kts | 213° |
| 2026-05-04 16:49 | 49.90680 | 14.72645 | 4007 ft | 219 kts | 283° |
| 2026-05-04 16:50 | 49.91943 | 14.68339 | 4006 ft | 223 kts | 295° |
| 2026-05-04 16:50 | 49.93408 | 14.64074 | 4005 ft | 224 kts | 295° |
| 2026-05-04 16:51 | 49.94629 | 14.60528 | 4005 ft | 221 kts | 295° |
| 2026-05-04 16:51 | 49.95350 | 14.58414 | 4004 ft | 222 kts | 295° |
| 2026-05-04 16:51 | 49.97120 | 14.54426 | 4010 ft | 226 kts | 305° |
| 2026-05-04 16:52 | 49.99019 | 14.50592 | 4004 ft | 224 kts | 305° |
| 2026-05-04 16:52 | 49.99960 | 14.48687 | 3822 ft | 222 kts | 305° |
| 2026-05-04 16:53 | 50.01571 | 14.44499 | 3102 ft | 230 kts | 294° |
| 2026-05-04 16:53 | 50.03977 | 14.38600 | 3017 ft | 201 kts | 314° |
| 2026-05-04 16:54 | 50.04909 | 14.37133 | 3001 ft | 187 kts | 310° |
| 2026-05-04 16:55 | 50.07717 | 14.30909 | 1840 ft | 161 kts | 308° |
| 2026-05-04 16:55 | 50.08994 | 14.28234 | 1287 ft | 150 kts | 313° |
| 2026-05-04 16:56 | 50.10014 | 14.26102 | 1191 ft | 67 kts | 313° |
| 2026-05-04 16:56 | 50.10404 | 14.25661 | 1184 ft | 4 kts | 3° |
| 2026-05-04 16:57 | 50.10422 | 14.25664 | 1183 ft | 0 kts | 8° |
| 2026-05-04 16:57 | 50.10424 | 14.25665 | 1183 ft | 0 kts | 9° |
| 2026-05-04 16:58 | 50.10430 | 14.25666 | 1183 ft | 4 kts | 9° |
| 2026-05-04 16:58 | 50.10484 | 14.25691 | 1178 ft | 8 kts | 47° |
| 2026-05-04 16:59 | 50.10516 | 14.25989 | 1173 ft | 19 kts | 78° |
| 2026-05-04 17:00 | 50.10562 | 14.26349 | 1174 ft | 0 kts | 34° |